UAL8486 CYOW-KDCA
Flight info
| Callsign | UAL8486 |
|---|---|
| Flight time | 1h 31m |
| Altitude | 38000 |
| Route | IKLAX Q844 SYR J59 PSB SKILS5 |
| Aircraft | CRJ7/M-SDFGIRWY/S |
Departure
| Time | 2026-04-20 18:52 |
|---|---|
| Airport | Ottawa Macdonald-Cartier International Airport (CYOW) |
Arrival
| Time | 2026-04-20 20:23 |
|---|---|
| Airport | Ronald Reagan Washington National Airport (KDCA) |
| Time | Latitude | Longitude | Altitude | Speed | Heading |
|---|---|---|---|---|---|
| 2026-04-20 18:35 | 45.32252 | -75.66988 | 384 ft | 0 kts | 37° |
| 2026-04-20 18:42 | 45.32228 | -75.67015 | 384 ft | 4 kts | 42° |
| 2026-04-20 18:42 | 45.32215 | -75.67033 | 384 ft | 4 kts | 49° |
| 2026-04-20 18:43 | 45.32201 | -75.67064 | 385 ft | 4 kts | 71° |
| 2026-04-20 18:43 | 45.32202 | -75.67093 | 385 ft | 1 kts | 124° |
| 2026-04-20 18:43 | 45.32203 | -75.67094 | 385 ft | 1 kts | 125° |
| 2026-04-20 18:46 | 45.32202 | -75.67093 | 385 ft | 1 kts | 125° |
| 2026-04-20 18:46 | 45.32197 | -75.67081 | 385 ft | 2 kts | 126° |
| 2026-04-20 18:46 | 45.32195 | -75.67079 | 385 ft | 1 kts | 144° |
| 2026-04-20 18:46 | 45.32187 | -75.67080 | 385 ft | 2 kts | 204° |
| 2026-04-20 18:47 | 45.32170 | -75.67109 | 385 ft | 5 kts | 220° |
| 2026-04-20 18:47 | 45.32133 | -75.67110 | 384 ft | 6 kts | 155° |
| 2026-04-20 18:47 | 45.32104 | -75.67074 | 385 ft | 5 kts | 126° |
| 2026-04-20 18:47 | 45.32088 | -75.67042 | 386 ft | 3 kts | 126° |
| 2026-04-20 18:48 | 45.32075 | -75.67018 | 387 ft | 6 kts | 126° |
| 2026-04-20 18:48 | 45.32034 | -75.66938 | 388 ft | 12 kts | 126° |
| 2026-04-20 18:48 | 45.31973 | -75.66821 | 388 ft | 17 kts | 126° |
| 2026-04-20 18:48 | 45.31917 | -75.66713 | 389 ft | 14 kts | 126° |
| 2026-04-20 18:49 | 45.31867 | -75.66618 | 388 ft | 13 kts | 126° |
| 2026-04-20 18:49 | 45.31825 | -75.66479 | 386 ft | 17 kts | 111° |
| 2026-04-20 18:49 | 45.31751 | -75.66328 | 384 ft | 21 kts | 124° |
| 2026-04-20 18:49 | 45.31682 | -75.66195 | 382 ft | 16 kts | 127° |
| 2026-04-20 18:50 | 45.31610 | -75.66056 | 383 ft | 20 kts | 126° |
| 2026-04-20 18:50 | 45.31549 | -75.65935 | 383 ft | 15 kts | 126° |
| 2026-04-20 18:50 | 45.31502 | -75.65843 | 385 ft | 9 kts | 127° |
| 2026-04-20 18:50 | 45.31453 | -75.65753 | 385 ft | 14 kts | 128° |
| 2026-04-20 18:51 | 45.31382 | -75.65616 | 383 ft | 20 kts | 126° |
| 2026-04-20 18:51 | 45.31336 | -75.65527 | 384 ft | 12 kts | 129° |
| 2026-04-20 18:51 | 45.31248 | -75.65461 | 381 ft | 18 kts | 167° |
| 2026-04-20 18:51 | 45.31139 | -75.65462 | 380 ft | 10 kts | 210° |
| 2026-04-20 18:52 | 45.31114 | -75.65548 | 381 ft | 15 kts | 285° |
| 2026-04-20 18:52 | 45.31272 | -75.65873 | 385 ft | 77 kts | 307° |
| 2026-04-20 18:52 | 45.31717 | -75.66791 | 415 ft | 141 kts | 306° |
| 2026-04-20 18:52 | 45.32334 | -75.67948 | 1070 ft | 146 kts | 317° |
| 2026-04-20 18:53 | 45.33132 | -75.68891 | 1806 ft | 155 kts | 332° |
| 2026-04-20 18:53 | 45.34165 | -75.69430 | 2465 ft | 171 kts | 4° |
| 2026-04-20 18:53 | 45.35327 | -75.68544 | 2577 ft | 214 kts | 58° |
| 2026-04-20 18:53 | 45.35497 | -75.66715 | 3627 ft | 169 kts | 126° |
| 2026-04-20 18:54 | 45.34560 | -75.66074 | 4083 ft | 170 kts | 199° |
| 2026-04-20 18:54 | 45.33965 | -75.67514 | 4355 ft | 203 kts | 277° |
| 2026-04-20 18:54 | 45.35047 | -75.69080 | 4824 ft | 269 kts | 341° |
| 2026-04-20 18:54 | 45.36914 | -75.68165 | 5347 ft | 318 kts | 54° |
| 2026-04-20 18:55 | 45.37074 | -75.65285 | 6461 ft | 292 kts | 132° |
| 2026-04-20 18:55 | 45.35439 | -75.64429 | 6616 ft | 264 kts | 216° |
| 2026-04-20 18:55 | 45.33963 | -75.65818 | 8122 ft | 231 kts | 213° |
| 2026-04-20 18:55 | 45.32404 | -75.66071 | 10031 ft | 240 kts | 176° |
| 2026-04-20 18:56 | 45.30775 | -75.65152 | 10748 ft | 268 kts | 167° |
| 2026-04-20 18:56 | 45.28994 | -75.64196 | 11354 ft | 273 kts | 183° |
| 2026-04-20 18:56 | 45.27117 | -75.64537 | 11520 ft | 283 kts | 210° |
| 2026-04-20 18:56 | 45.25194 | -75.65718 | 11593 ft | 318 kts | 210° |
| 2026-04-20 18:57 | 45.23056 | -75.66959 | 11667 ft | 353 kts | 207° |
| 2026-04-20 18:57 | 45.20582 | -75.68087 | 11734 ft | 374 kts | 202° |
| 2026-04-20 18:57 | 45.18150 | -75.68869 | 11769 ft | 358 kts | 199° |
| 2026-04-20 18:57 | 45.15726 | -75.69554 | 12378 ft | 354 kts | 198° |
| 2026-04-20 18:58 | 45.13304 | -75.70231 | 13335 ft | 349 kts | 199° |
| 2026-04-20 18:58 | 45.10960 | -75.70925 | 14464 ft | 340 kts | 200° |
| 2026-04-20 18:58 | 45.08658 | -75.71645 | 15385 ft | 336 kts | 200° |
| 2026-04-20 18:58 | 45.06383 | -75.72353 | 16280 ft | 332 kts | 200° |
| 2026-04-20 18:59 | 45.04169 | -75.73040 | 17131 ft | 327 kts | 201° |
| 2026-04-20 18:59 | 45.01956 | -75.73731 | 17964 ft | 323 kts | 201° |
| 2026-04-20 18:59 | 44.99811 | -75.74607 | 18541 ft | 320 kts | 209° |
| 2026-04-20 18:59 | 44.97768 | -75.75899 | 18821 ft | 328 kts | 213° |
| 2026-04-20 19:00 | 44.95715 | -75.77442 | 19120 ft | 333 kts | 216° |
| 2026-04-20 19:00 | 44.93746 | -75.79055 | 20143 ft | 321 kts | 217° |
| 2026-04-20 19:00 | 44.91855 | -75.80625 | 20860 ft | 319 kts | 217° |
| 2026-04-20 19:00 | 44.89930 | -75.82200 | 21426 ft | 319 kts | 217° |
| 2026-04-20 19:01 | 44.88003 | -75.83761 | 21972 ft | 320 kts | 217° |
| 2026-04-20 19:01 | 44.86075 | -75.85327 | 22523 ft | 319 kts | 217° |
| 2026-04-20 19:01 | 44.84150 | -75.86882 | 23047 ft | 320 kts | 217° |
| 2026-04-20 19:01 | 44.82213 | -75.88455 | 23578 ft | 320 kts | 217° |
| 2026-04-20 19:02 | 44.80280 | -75.90019 | 24077 ft | 320 kts | 218° |
| 2026-04-20 19:02 | 44.78370 | -75.91564 | 24563 ft | 320 kts | 218° |
| 2026-04-20 19:02 | 44.76434 | -75.93122 | 25067 ft | 320 kts | 218° |
| 2026-04-20 19:02 | 44.74504 | -75.94668 | 25603 ft | 317 kts | 218° |
| 2026-04-20 19:03 | 44.72593 | -75.96200 | 26108 ft | 316 kts | 217° |
| 2026-04-20 19:03 | 44.70528 | -75.97392 | 26552 ft | 327 kts | 204° |
| 2026-04-20 19:03 | 44.68309 | -75.98159 | 26995 ft | 328 kts | 203° |
| 2026-04-20 19:03 | 44.66058 | -75.98755 | 27444 ft | 332 kts | 198° |
| 2026-04-20 19:04 | 44.63731 | -75.99022 | 27826 ft | 337 kts | 193° |
| 2026-04-20 19:04 | 44.61387 | -75.99165 | 28224 ft | 337 kts | 193° |
| 2026-04-20 19:04 | 44.59053 | -75.99349 | 28612 ft | 334 kts | 195° |
| 2026-04-20 19:04 | 44.56767 | -75.99615 | 28983 ft | 332 kts | 196° |
| 2026-04-20 19:05 | 44.54467 | -75.99885 | 29379 ft | 331 kts | 195° |
| 2026-04-20 19:05 | 44.52175 | -76.00138 | 29731 ft | 329 kts | 196° |
| 2026-04-20 19:05 | 44.49892 | -76.00389 | 30067 ft | 328 kts | 196° |
| 2026-04-20 19:05 | 44.47639 | -76.00640 | 30384 ft | 328 kts | 196° |
| 2026-04-20 19:06 | 44.45363 | -76.00895 | 30669 ft | 328 kts | 196° |
| 2026-04-20 19:06 | 44.43086 | -76.01149 | 30929 ft | 328 kts | 195° |
| 2026-04-20 19:06 | 44.40816 | -76.01398 | 31251 ft | 326 kts | 196° |
| 2026-04-20 19:06 | 44.38552 | -76.01650 | 31507 ft | 326 kts | 195° |
| 2026-04-20 19:07 | 44.36285 | -76.01894 | 31707 ft | 327 kts | 195° |
| 2026-04-20 19:07 | 44.34016 | -76.02142 | 31961 ft | 326 kts | 196° |
| 2026-04-20 19:07 | 44.31793 | -76.02451 | 32193 ft | 324 kts | 197° |
| 2026-04-20 19:07 | 44.29559 | -76.02846 | 32421 ft | 323 kts | 198° |
| 2026-04-20 19:08 | 44.27327 | -76.03243 | 32645 ft | 323 kts | 198° |
| 2026-04-20 19:08 | 44.22871 | -76.03978 | 33085 ft | 322 kts | 197° |
| 2026-04-20 19:08 | 44.20666 | -76.04323 | 33274 ft | 322 kts | 197° |
| 2026-04-20 19:09 | 44.18434 | -76.04674 | 33463 ft | 322 kts | 197° |
| 2026-04-20 19:09 | 44.16226 | -76.05021 | 33658 ft | 321 kts | 197° |
| 2026-04-20 19:09 | 44.14003 | -76.05367 | 33863 ft | 321 kts | 197° |
| 2026-04-20 19:09 | 44.11786 | -76.05715 | 34039 ft | 320 kts | 197° |
| 2026-04-20 19:10 | 44.09568 | -76.06064 | 34217 ft | 320 kts | 197° |
| 2026-04-20 19:10 | 44.07355 | -76.06410 | 34415 ft | 319 kts | 197° |
| 2026-04-20 19:10 | 44.05149 | -76.06752 | 34593 ft | 318 kts | 197° |
| 2026-04-20 19:10 | 44.02949 | -76.07093 | 34764 ft | 317 kts | 197° |
| 2026-04-20 19:11 | 44.00786 | -76.07433 | 34949 ft | 316 kts | 197° |
| 2026-04-20 19:11 | 43.98604 | -76.07773 | 35108 ft | 315 kts | 197° |
| 2026-04-20 19:11 | 43.96417 | -76.08113 | 35269 ft | 314 kts | 197° |
| 2026-04-20 19:11 | 43.94245 | -76.08447 | 35420 ft | 313 kts | 197° |
| 2026-04-20 19:12 | 43.92082 | -76.08779 | 35566 ft | 312 kts | 197° |
| 2026-04-20 19:12 | 43.89919 | -76.09116 | 35720 ft | 311 kts | 197° |
| 2026-04-20 19:12 | 43.87797 | -76.09448 | 35849 ft | 310 kts | 197° |
| 2026-04-20 19:12 | 43.85647 | -76.09781 | 35969 ft | 310 kts | 197° |
| 2026-04-20 19:13 | 43.83501 | -76.10115 | 36076 ft | 310 kts | 197° |
| 2026-04-20 19:13 | 43.81365 | -76.10444 | 36218 ft | 308 kts | 197° |
| 2026-04-20 19:13 | 43.79229 | -76.10772 | 36299 ft | 309 kts | 197° |
| 2026-04-20 19:13 | 43.77096 | -76.11101 | 36429 ft | 307 kts | 197° |
| 2026-04-20 19:14 | 43.74990 | -76.11428 | 36508 ft | 308 kts | 197° |
| 2026-04-20 19:14 | 43.72863 | -76.11759 | 36627 ft | 306 kts | 197° |
| 2026-04-20 19:14 | 43.70759 | -76.12082 | 36762 ft | 304 kts | 197° |
| 2026-04-20 19:14 | 43.68658 | -76.12402 | 36910 ft | 301 kts | 197° |
| 2026-04-20 19:15 | 43.66582 | -76.12720 | 37032 ft | 298 kts | 198° |
| 2026-04-20 19:15 | 43.64526 | -76.13038 | 37118 ft | 297 kts | 198° |
| 2026-04-20 19:15 | 43.62473 | -76.13354 | 37168 ft | 297 kts | 198° |
| 2026-04-20 19:15 | 43.60413 | -76.13673 | 37203 ft | 297 kts | 198° |
| 2026-04-20 19:16 | 43.58361 | -76.13991 | 37236 ft | 297 kts | 198° |
| 2026-04-20 19:16 | 43.56309 | -76.14303 | 37302 ft | 296 kts | 198° |
| 2026-04-20 19:16 | 43.54282 | -76.14611 | 37332 ft | 296 kts | 198° |
| 2026-04-20 19:16 | 43.52233 | -76.14926 | 37354 ft | 296 kts | 198° |
| 2026-04-20 19:17 | 43.50183 | -76.15245 | 37403 ft | 296 kts | 197° |
| 2026-04-20 19:17 | 43.48140 | -76.15557 | 37436 ft | 295 kts | 197° |
| 2026-04-20 19:17 | 43.46092 | -76.15868 | 37498 ft | 295 kts | 197° |
| 2026-04-20 19:17 | 43.44054 | -76.16178 | 37554 ft | 294 kts | 197° |
| 2026-04-20 19:18 | 43.42046 | -76.16488 | 37576 ft | 294 kts | 197° |
| 2026-04-20 19:18 | 43.40009 | -76.16797 | 37592 ft | 294 kts | 197° |
| 2026-04-20 19:18 | 43.37972 | -76.17113 | 37619 ft | 294 kts | 197° |
| 2026-04-20 19:18 | 43.35931 | -76.17422 | 37644 ft | 295 kts | 197° |
| 2026-04-20 19:19 | 43.33887 | -76.17735 | 37673 ft | 295 kts | 198° |
| 2026-04-20 19:19 | 43.31850 | -76.18045 | 37698 ft | 295 kts | 197° |
| 2026-04-20 19:19 | 43.29834 | -76.18353 | 37720 ft | 295 kts | 197° |
| 2026-04-20 19:19 | 43.27798 | -76.18661 | 37774 ft | 294 kts | 197° |
| 2026-04-20 19:20 | 43.25765 | -76.18972 | 37790 ft | 294 kts | 197° |
| 2026-04-20 19:20 | 43.23726 | -76.19284 | 37795 ft | 294 kts | 197° |
| 2026-04-20 19:20 | 43.21684 | -76.19593 | 37809 ft | 294 kts | 197° |
| 2026-04-20 19:20 | 43.19675 | -76.19900 | 37860 ft | 293 kts | 197° |
| 2026-04-20 19:21 | 43.17681 | -76.20421 | 37901 ft | 282 kts | 207° |
| 2026-04-20 19:21 | 43.15874 | -76.21299 | 37983 ft | 277 kts | 210° |
| 2026-04-20 19:21 | 43.14087 | -76.22263 | 38031 ft | 274 kts | 211° |
| 2026-04-20 19:21 | 43.12364 | -76.23353 | 38057 ft | 270 kts | 216° |
| 2026-04-20 19:22 | 43.10749 | -76.24643 | 38088 ft | 267 kts | 219° |
| 2026-04-20 19:22 | 43.09193 | -76.26006 | 38108 ft | 265 kts | 220° |
| 2026-04-20 19:22 | 43.07666 | -76.27365 | 38144 ft | 265 kts | 219° |
| 2026-04-20 19:22 | 43.06106 | -76.28704 | 38143 ft | 264 kts | 218° |
| 2026-04-20 19:23 | 43.04529 | -76.30001 | 38152 ft | 264 kts | 218° |
| 2026-04-20 19:23 | 43.02954 | -76.31298 | 38164 ft | 264 kts | 218° |
| 2026-04-20 19:23 | 43.01382 | -76.32596 | 38173 ft | 263 kts | 218° |
| 2026-04-20 19:23 | 42.99812 | -76.33893 | 38180 ft | 264 kts | 218° |
| 2026-04-20 19:24 | 42.98242 | -76.35190 | 38169 ft | 263 kts | 218° |
| 2026-04-20 19:24 | 42.96674 | -76.36483 | 38170 ft | 263 kts | 218° |
| 2026-04-20 19:24 | 42.95128 | -76.37757 | 38176 ft | 262 kts | 218° |
| 2026-04-20 19:24 | 42.93566 | -76.39045 | 38184 ft | 262 kts | 218° |
| 2026-04-20 19:25 | 42.91999 | -76.40335 | 38188 ft | 262 kts | 218° |
| 2026-04-20 19:25 | 42.90440 | -76.41620 | 38188 ft | 262 kts | 218° |
| 2026-04-20 19:25 | 42.88882 | -76.42900 | 38185 ft | 261 kts | 218° |
| 2026-04-20 19:25 | 42.87322 | -76.44182 | 38193 ft | 261 kts | 218° |
| 2026-04-20 19:26 | 42.85766 | -76.45455 | 38202 ft | 260 kts | 218° |
| 2026-04-20 19:26 | 42.84236 | -76.46717 | 38195 ft | 260 kts | 218° |
| 2026-04-20 19:26 | 42.82682 | -76.47990 | 38198 ft | 260 kts | 218° |
| 2026-04-20 19:26 | 42.81134 | -76.49261 | 38204 ft | 260 kts | 218° |
| 2026-04-20 19:27 | 42.79584 | -76.50533 | 38202 ft | 260 kts | 218° |
| 2026-04-20 19:27 | 42.78037 | -76.51798 | 38193 ft | 259 kts | 218° |
| 2026-04-20 19:27 | 42.76493 | -76.53065 | 38200 ft | 258 kts | 218° |
| 2026-04-20 19:27 | 42.74948 | -76.54329 | 38207 ft | 258 kts | 218° |
| 2026-04-20 19:28 | 42.73412 | -76.55584 | 38209 ft | 258 kts | 218° |
| 2026-04-20 19:28 | 42.71872 | -76.56844 | 38210 ft | 257 kts | 218° |
| 2026-04-20 19:28 | 42.70354 | -76.58076 | 38212 ft | 257 kts | 218° |
| 2026-04-20 19:28 | 42.68822 | -76.59330 | 38210 ft | 256 kts | 218° |
| 2026-04-20 19:29 | 42.67296 | -76.60577 | 38220 ft | 256 kts | 218° |
| 2026-04-20 19:29 | 42.65766 | -76.61827 | 38225 ft | 256 kts | 218° |
| 2026-04-20 19:29 | 42.64239 | -76.63067 | 38228 ft | 256 kts | 218° |
| 2026-04-20 19:29 | 42.62714 | -76.64311 | 38228 ft | 255 kts | 218° |
| 2026-04-20 19:30 | 42.61209 | -76.65537 | 38227 ft | 255 kts | 218° |
| 2026-04-20 19:30 | 42.59684 | -76.66776 | 38230 ft | 255 kts | 218° |
| 2026-04-20 19:30 | 42.58163 | -76.68010 | 38224 ft | 254 kts | 218° |
| 2026-04-20 19:30 | 42.56648 | -76.69237 | 38217 ft | 253 kts | 218° |
| 2026-04-20 19:31 | 42.55143 | -76.70464 | 38224 ft | 252 kts | 218° |
| 2026-04-20 19:31 | 42.53639 | -76.71684 | 38226 ft | 251 kts | 218° |
| 2026-04-20 19:31 | 42.52136 | -76.72906 | 38224 ft | 250 kts | 218° |
| 2026-04-20 19:31 | 42.50643 | -76.74114 | 38221 ft | 249 kts | 218° |
| 2026-04-20 19:32 | 42.49658 | -76.74911 | 38225 ft | 249 kts | 218° |
| 2026-04-20 19:32 | 42.48177 | -76.76114 | 38226 ft | 248 kts | 218° |
| 2026-04-20 19:32 | 42.46696 | -76.77309 | 38222 ft | 247 kts | 218° |
| 2026-04-20 19:32 | 42.45223 | -76.78498 | 38228 ft | 245 kts | 218° |
| 2026-04-20 19:33 | 42.43761 | -76.79683 | 38225 ft | 244 kts | 218° |
| 2026-04-20 19:33 | 42.42305 | -76.80859 | 38236 ft | 242 kts | 218° |
| 2026-04-20 19:33 | 42.40857 | -76.82026 | 38235 ft | 241 kts | 218° |
| 2026-04-20 19:33 | 42.39416 | -76.83189 | 38242 ft | 240 kts | 218° |
| 2026-04-20 19:34 | 42.38000 | -76.84333 | 38246 ft | 239 kts | 218° |
| 2026-04-20 19:34 | 42.36573 | -76.85484 | 38247 ft | 238 kts | 218° |
| 2026-04-20 19:34 | 42.35150 | -76.86622 | 38239 ft | 237 kts | 218° |
| 2026-04-20 19:34 | 42.33738 | -76.87757 | 38236 ft | 235 kts | 218° |
| 2026-04-20 19:35 | 42.32339 | -76.88888 | 38239 ft | 233 kts | 218° |
| 2026-04-20 19:35 | 42.30952 | -76.90006 | 38235 ft | 231 kts | 218° |
| 2026-04-20 19:35 | 42.29578 | -76.91108 | 38241 ft | 228 kts | 218° |
| 2026-04-20 19:35 | 42.28220 | -76.92195 | 38245 ft | 225 kts | 218° |
| 2026-04-20 19:36 | 42.26900 | -76.93258 | 38254 ft | 222 kts | 219° |
| 2026-04-20 19:36 | 42.25575 | -76.94316 | 38244 ft | 219 kts | 218° |
| 2026-04-20 19:36 | 42.24271 | -76.95343 | 38247 ft | 215 kts | 218° |
| 2026-04-20 19:36 | 42.22985 | -76.96350 | 38243 ft | 211 kts | 218° |
| 2026-04-20 19:37 | 42.21732 | -76.97330 | 38240 ft | 206 kts | 218° |
| 2026-04-20 19:37 | 42.20512 | -76.98283 | 38237 ft | 199 kts | 219° |
| 2026-04-20 19:37 | 42.19357 | -76.99208 | 38208 ft | 193 kts | 219° |
| 2026-04-20 19:37 | 42.18197 | -77.00142 | 38011 ft | 193 kts | 219° |
| 2026-04-20 19:38 | 42.17046 | -77.01071 | 37854 ft | 192 kts | 219° |
| 2026-04-20 19:38 | 42.15900 | -77.02002 | 37634 ft | 194 kts | 219° |
| 2026-04-20 19:38 | 42.14745 | -77.02941 | 37494 ft | 190 kts | 220° |
| 2026-04-20 19:38 | 42.13608 | -77.03847 | 37328 ft | 190 kts | 219° |
| 2026-04-20 19:39 | 42.12481 | -77.04751 | 37180 ft | 188 kts | 219° |
| 2026-04-20 19:39 | 42.11358 | -77.05650 | 36987 ft | 187 kts | 219° |
| 2026-04-20 19:39 | 42.10240 | -77.06556 | 36796 ft | 186 kts | 219° |
| 2026-04-20 19:39 | 42.09127 | -77.07455 | 36634 ft | 186 kts | 220° |
| 2026-04-20 19:40 | 42.08032 | -77.08335 | 36486 ft | 185 kts | 219° |
| 2026-04-20 19:40 | 42.06924 | -77.09222 | 36329 ft | 185 kts | 219° |
| 2026-04-20 19:40 | 42.05808 | -77.10113 | 36156 ft | 187 kts | 219° |
| 2026-04-20 19:40 | 42.04687 | -77.11001 | 36017 ft | 187 kts | 219° |
| 2026-04-20 19:41 | 42.03564 | -77.11897 | 35877 ft | 187 kts | 219° |
| 2026-04-20 19:41 | 42.02438 | -77.12798 | 35754 ft | 188 kts | 219° |
| 2026-04-20 19:41 | 42.01330 | -77.13676 | 35663 ft | 187 kts | 219° |
| 2026-04-20 19:41 | 42.00203 | -77.14573 | 35540 ft | 187 kts | 219° |
| 2026-04-20 19:42 | 41.99087 | -77.15463 | 35446 ft | 186 kts | 219° |
| 2026-04-20 19:42 | 41.97960 | -77.16374 | 35249 ft | 190 kts | 218° |
| 2026-04-20 19:42 | 41.96834 | -77.17268 | 35184 ft | 189 kts | 218° |
| 2026-04-20 19:42 | 41.95705 | -77.18167 | 35077 ft | 188 kts | 218° |
| 2026-04-20 19:43 | 41.94955 | -77.18756 | 35029 ft | 188 kts | 218° |
| 2026-04-20 19:43 | 41.93467 | -77.19938 | 34914 ft | 187 kts | 218° |
| 2026-04-20 19:43 | 41.92333 | -77.20839 | 34825 ft | 186 kts | 218° |
| 2026-04-20 19:43 | 41.91202 | -77.21742 | 34554 ft | 196 kts | 218° |
| 2026-04-20 19:44 | 41.89984 | -77.22714 | 34264 ft | 210 kts | 217° |
| 2026-04-20 19:44 | 41.88678 | -77.23755 | 33945 ft | 226 kts | 217° |
| 2026-04-20 19:44 | 41.87276 | -77.24870 | 33659 ft | 242 kts | 216° |
| 2026-04-20 19:44 | 41.85770 | -77.26066 | 33349 ft | 259 kts | 216° |
| 2026-04-20 19:45 | 41.84185 | -77.27325 | 33052 ft | 277 kts | 216° |
| 2026-04-20 19:45 | 41.82472 | -77.28685 | 32742 ft | 295 kts | 216° |
| 2026-04-20 19:45 | 41.80653 | -77.30121 | 32453 ft | 310 kts | 216° |
| 2026-04-20 19:45 | 41.78757 | -77.31622 | 32341 ft | 322 kts | 215° |
| 2026-04-20 19:46 | 41.76816 | -77.33150 | 32279 ft | 331 kts | 215° |
| 2026-04-20 19:46 | 41.72748 | -77.36364 | 32234 ft | 347 kts | 215° |
| 2026-04-20 19:47 | 41.68491 | -77.39721 | 32223 ft | 362 kts | 215° |
| 2026-04-20 19:47 | 41.64090 | -77.43177 | 32214 ft | 376 kts | 214° |
| 2026-04-20 19:48 | 41.59496 | -77.46780 | 32220 ft | 388 kts | 214° |
| 2026-04-20 19:48 | 41.54775 | -77.50495 | 32203 ft | 399 kts | 214° |
| 2026-04-20 19:49 | 41.49898 | -77.54229 | 32227 ft | 409 kts | 214° |
| 2026-04-20 19:49 | 41.44930 | -77.58100 | 32230 ft | 418 kts | 214° |
| 2026-04-20 19:50 | 41.39901 | -77.62032 | 32229 ft | 425 kts | 214° |
| 2026-04-20 19:50 | 41.34761 | -77.66045 | 32239 ft | 431 kts | 214° |
| 2026-04-20 19:51 | 41.29567 | -77.70126 | 32249 ft | 435 kts | 213° |
| 2026-04-20 19:51 | 41.24256 | -77.74102 | 32237 ft | 438 kts | 213° |
| 2026-04-20 19:52 | 41.18999 | -77.78163 | 32243 ft | 441 kts | 213° |
| 2026-04-20 19:52 | 41.13664 | -77.82283 | 32244 ft | 443 kts | 213° |
| 2026-04-20 19:53 | 41.08314 | -77.86397 | 32240 ft | 444 kts | 213° |
| 2026-04-20 19:53 | 41.02969 | -77.90453 | 32228 ft | 447 kts | 209° |
| 2026-04-20 19:53 | 40.99965 | -77.91670 | 32228 ft | 458 kts | 192° |
| 2026-04-20 19:54 | 40.96744 | -77.91636 | 32248 ft | 470 kts | 178° |
| 2026-04-20 19:54 | 40.90274 | -77.89819 | 32254 ft | 477 kts | 172° |
| 2026-04-20 19:55 | 40.83882 | -77.87557 | 32247 ft | 479 kts | 170° |
| 2026-04-20 19:55 | 40.77516 | -77.84759 | 32234 ft | 490 kts | 158° |
| 2026-04-20 19:55 | 40.74721 | -77.82081 | 32240 ft | 505 kts | 141° |
| 2026-04-20 19:56 | 40.73159 | -77.79776 | 32255 ft | 511 kts | 134° |
| 2026-04-20 19:56 | 40.67695 | -77.71714 | 32280 ft | 501 kts | 145° |
| 2026-04-20 19:57 | 40.62326 | -77.65860 | 32250 ft | 501 kts | 146° |
| 2026-04-20 19:57 | 40.56978 | -77.59943 | 32251 ft | 501 kts | 145° |
| 2026-04-20 19:58 | 40.51684 | -77.53963 | 32259 ft | 501 kts | 145° |
| 2026-04-20 19:58 | 40.46380 | -77.47995 | 32194 ft | 503 kts | 145° |
| 2026-04-20 19:58 | 40.43775 | -77.45067 | 31684 ft | 489 kts | 145° |
| 2026-04-20 19:59 | 40.41235 | -77.42194 | 31148 ft | 472 kts | 144° |
| 2026-04-20 19:59 | 40.38794 | -77.39402 | 30616 ft | 458 kts | 144° |
| 2026-04-20 19:59 | 40.36399 | -77.36668 | 30088 ft | 457 kts | 145° |
| 2026-04-20 19:59 | 40.33975 | -77.33949 | 29560 ft | 459 kts | 145° |
| 2026-04-20 20:00 | 40.31539 | -77.31224 | 29034 ft | 460 kts | 145° |
| 2026-04-20 20:00 | 40.29119 | -77.28526 | 28511 ft | 461 kts | 145° |
| 2026-04-20 20:00 | 40.26676 | -77.25793 | 28011 ft | 462 kts | 145° |
| 2026-04-20 20:00 | 40.24222 | -77.23054 | 27491 ft | 463 kts | 145° |
| 2026-04-20 20:01 | 40.21758 | -77.20310 | 26972 ft | 464 kts | 145° |
| 2026-04-20 20:01 | 40.19302 | -77.17575 | 26453 ft | 464 kts | 145° |
| 2026-04-20 20:01 | 40.16838 | -77.14839 | 25933 ft | 465 kts | 145° |
| 2026-04-20 20:01 | 40.14371 | -77.12093 | 25413 ft | 465 kts | 145° |
| 2026-04-20 20:02 | 40.11900 | -77.09359 | 24894 ft | 466 kts | 145° |
| 2026-04-20 20:02 | 40.09443 | -77.06629 | 24375 ft | 461 kts | 145° |
| 2026-04-20 20:02 | 40.07031 | -77.03956 | 23861 ft | 457 kts | 145° |
| 2026-04-20 20:02 | 40.04606 | -77.01279 | 23339 ft | 454 kts | 145° |
| 2026-04-20 20:03 | 40.02209 | -76.98622 | 22819 ft | 451 kts | 145° |
| 2026-04-20 20:03 | 39.99811 | -76.95980 | 22296 ft | 448 kts | 145° |
| 2026-04-20 20:03 | 39.97441 | -76.93363 | 21770 ft | 445 kts | 144° |
| 2026-04-20 20:03 | 39.95078 | -76.90768 | 21245 ft | 442 kts | 144° |
| 2026-04-20 20:04 | 39.92741 | -76.88180 | 20719 ft | 440 kts | 144° |
| 2026-04-20 20:04 | 39.90406 | -76.85611 | 20194 ft | 438 kts | 144° |
| 2026-04-20 20:04 | 39.88085 | -76.83060 | 19672 ft | 436 kts | 144° |
| 2026-04-20 20:04 | 39.85796 | -76.80551 | 19149 ft | 434 kts | 144° |
| 2026-04-20 20:05 | 39.83463 | -76.77986 | 18617 ft | 433 kts | 144° |
| 2026-04-20 20:05 | 39.81165 | -76.75470 | 18084 ft | 431 kts | 144° |
| 2026-04-20 20:05 | 39.78908 | -76.73003 | 17538 ft | 430 kts | 144° |
| 2026-04-20 20:05 | 39.76618 | -76.70499 | 16996 ft | 429 kts | 144° |
| 2026-04-20 20:06 | 39.74350 | -76.68004 | 16475 ft | 419 kts | 144° |
| 2026-04-20 20:06 | 39.72163 | -76.65612 | 15945 ft | 404 kts | 144° |
| 2026-04-20 20:06 | 39.70006 | -76.63348 | 15397 ft | 388 kts | 151° |
| 2026-04-20 20:06 | 39.67626 | -76.62098 | 14857 ft | 365 kts | 174° |
| 2026-04-20 20:07 | 39.65148 | -76.61737 | 14343 ft | 352 kts | 182° |
| 2026-04-20 20:07 | 39.62735 | -76.61791 | 13816 ft | 342 kts | 188° |
| 2026-04-20 20:07 | 39.60388 | -76.62059 | 13300 ft | 335 kts | 189° |
| 2026-04-20 20:07 | 39.58085 | -76.62358 | 12784 ft | 329 kts | 189° |
| 2026-04-20 20:08 | 39.55806 | -76.62650 | 12377 ft | 336 kts | 189° |
| 2026-04-20 20:08 | 39.53387 | -76.62912 | 12219 ft | 363 kts | 187° |
| 2026-04-20 20:08 | 39.50901 | -76.63129 | 12137 ft | 352 kts | 187° |
| 2026-04-20 20:08 | 39.48482 | -76.63340 | 12019 ft | 345 kts | 187° |
| 2026-04-20 20:09 | 39.46109 | -76.63556 | 11876 ft | 333 kts | 188° |
| 2026-04-20 20:09 | 39.43859 | -76.63758 | 11735 ft | 316 kts | 188° |
| 2026-04-20 20:09 | 39.41721 | -76.63951 | 11574 ft | 302 kts | 188° |
| 2026-04-20 20:09 | 39.39667 | -76.64135 | 11413 ft | 290 kts | 188° |
| 2026-04-20 20:10 | 39.37667 | -76.64316 | 11268 ft | 287 kts | 188° |
| 2026-04-20 20:10 | 39.35682 | -76.64499 | 11147 ft | 292 kts | 188° |
| 2026-04-20 20:10 | 39.33637 | -76.64684 | 11025 ft | 294 kts | 188° |
| 2026-04-20 20:10 | 39.31629 | -76.64859 | 10897 ft | 287 kts | 188° |
| 2026-04-20 20:11 | 39.29651 | -76.65042 | 10763 ft | 282 kts | 188° |
| 2026-04-20 20:11 | 39.27705 | -76.65216 | 10637 ft | 278 kts | 188° |
| 2026-04-20 20:11 | 39.25781 | -76.65392 | 10500 ft | 275 kts | 188° |
| 2026-04-20 20:11 | 39.23883 | -76.65563 | 10377 ft | 272 kts | 188° |
| 2026-04-20 20:12 | 39.22000 | -76.65733 | 10254 ft | 270 kts | 188° |
| 2026-04-20 20:12 | 39.20143 | -76.65904 | 10146 ft | 274 kts | 188° |
| 2026-04-20 20:12 | 39.18251 | -76.66092 | 10094 ft | 272 kts | 191° |
| 2026-04-20 20:13 | 39.15000 | -76.68440 | 10072 ft | 271 kts | 223° |
| 2026-04-20 20:13 | 39.13610 | -76.70078 | 10071 ft | 268 kts | 225° |
| 2026-04-20 20:13 | 39.12273 | -76.71743 | 10062 ft | 267 kts | 226° |
| 2026-04-20 20:13 | 39.10948 | -76.73419 | 10055 ft | 266 kts | 226° |
| 2026-04-20 20:14 | 39.09610 | -76.75064 | 10051 ft | 266 kts | 225° |
| 2026-04-20 20:14 | 39.08256 | -76.76687 | 10054 ft | 266 kts | 224° |
| 2026-04-20 20:14 | 39.06881 | -76.78313 | 9778 ft | 268 kts | 224° |
| 2026-04-20 20:14 | 39.05514 | -76.79924 | 9456 ft | 265 kts | 224° |
| 2026-04-20 20:15 | 39.04178 | -76.81503 | 9067 ft | 265 kts | 224° |
| 2026-04-20 20:15 | 39.02803 | -76.83127 | 8461 ft | 271 kts | 225° |
| 2026-04-20 20:15 | 39.01400 | -76.84785 | 7850 ft | 276 kts | 224° |
| 2026-04-20 20:15 | 39.00005 | -76.86435 | 7398 ft | 265 kts | 224° |
| 2026-04-20 20:16 | 38.98675 | -76.88002 | 7201 ft | 254 kts | 225° |
| 2026-04-20 20:16 | 38.97401 | -76.89471 | 7070 ft | 243 kts | 223° |
| 2026-04-20 20:16 | 38.96107 | -76.90886 | 6624 ft | 245 kts | 222° |
| 2026-04-20 20:16 | 38.94780 | -76.92288 | 6125 ft | 248 kts | 221° |
| 2026-04-20 20:17 | 38.93882 | -76.93204 | 5800 ft | 250 kts | 218° |
| 2026-04-20 20:17 | 38.91673 | -76.94046 | 5313 ft | 251 kts | 191° |
| 2026-04-20 20:17 | 38.89937 | -76.94219 | 5168 ft | 252 kts | 187° |
| 2026-04-20 20:17 | 38.88762 | -76.94267 | 5118 ft | 257 kts | 185° |
| 2026-04-20 20:18 | 38.86981 | -76.94283 | 5075 ft | 257 kts | 184° |
| 2026-04-20 20:18 | 38.85189 | -76.94283 | 4706 ft | 255 kts | 184° |
| 2026-04-20 20:18 | 38.83430 | -76.94287 | 4358 ft | 250 kts | 184° |
| 2026-04-20 20:18 | 38.81702 | -76.94316 | 4185 ft | 247 kts | 185° |
| 2026-04-20 20:19 | 38.79973 | -76.94360 | 4112 ft | 247 kts | 185° |
| 2026-04-20 20:19 | 38.78260 | -76.94410 | 4086 ft | 252 kts | 185° |
| 2026-04-20 20:19 | 38.76489 | -76.94380 | 4067 ft | 257 kts | 181° |
| 2026-04-20 20:19 | 38.74689 | -76.94234 | 4077 ft | 262 kts | 179° |
| 2026-04-20 20:20 | 38.72888 | -76.94274 | 3968 ft | 252 kts | 198° |
| 2026-04-20 20:20 | 38.71524 | -76.95486 | 3783 ft | 237 kts | 236° |
| 2026-04-20 20:20 | 38.71124 | -76.97461 | 3584 ft | 231 kts | 274° |
| 2026-04-20 20:20 | 38.71739 | -76.99356 | 3318 ft | 232 kts | 296° |
| 2026-04-20 20:21 | 38.72569 | -77.01083 | 3083 ft | 227 kts | 297° |
| 2026-04-20 20:21 | 38.73475 | -77.02846 | 2362 ft | 245 kts | 307° |
| 2026-04-20 20:21 | 38.75012 | -77.03863 | 1614 ft | 264 kts | 353° |
| 2026-04-20 20:21 | 38.76837 | -77.03825 | 1320 ft | 257 kts | 8° |
| 2026-04-20 20:22 | 38.78545 | -77.03531 | 1247 ft | 236 kts | 8° |
| 2026-04-20 20:22 | 38.80016 | -77.03194 | 1460 ft | 184 kts | 10° |
| 2026-04-20 20:22 | 38.81196 | -77.03154 | 1003 ft | 164 kts | 351° |
| 2026-04-20 20:22 | 38.82244 | -77.03485 | 531 ft | 144 kts | 348° |
| 2026-04-20 20:23 | 38.83157 | -77.03580 | 246 ft | 127 kts | 355° |
| 2026-04-20 20:23 | 38.84033 | -77.03668 | 93 ft | 127 kts | 356° |
| 2026-04-20 20:23 | 38.84809 | -77.03744 | 25 ft | 89 kts | 354° |
| 2026-04-20 20:23 | 38.85174 | -77.03776 | 23 ft | 13 kts | 354° |
| 2026-04-20 20:24 | 38.85238 | -77.03806 | 21 ft | 10 kts | 321° |
| 2026-04-20 20:24 | 38.85259 | -77.03863 | 21 ft | 5 kts | 274° |
| 2026-04-20 20:24 | 38.85264 | -77.03898 | 22 ft | 0 kts | 289° |
| 2026-04-20 20:24 | 38.85288 | -77.03925 | 22 ft | 8 kts | 336° |
| 2026-04-20 20:25 | 38.85336 | -77.03955 | 22 ft | 8 kts | 300° |
| 2026-04-20 20:25 | 38.85351 | -77.03987 | 22 ft | 4 kts | 323° |
| 2026-04-20 20:25 | 38.85398 | -77.04002 | 22 ft | 8 kts | 355° |
| 2026-04-20 20:25 | 38.85640 | -77.04360 | 24 ft | 0 kts | 193° |